Time;durP1;ratioP1;P1;durP2;ratioP2;P2;SDS_P1;SDS_P2;PMS_P1;PMS_P2;Temp;Humidity;BMP_temperature;BMP_pressure;BME280_temperature;BME280_humidity;BME280_pressure;Samples;Min_cycle;Max_cycle;Signal;HPM_P1;HPM_P2
2021/10/07 00:01:42;;;;;;;0.40;0.30;;;;;;;8.10;100.00;101883.91;5075747;28;20445;-68
2021/10/07 00:04:10;;;;;;;0.40;0.30;;;;;;;8.03;100.00;101886.03;5075382;28;20447;-68
2021/10/07 00:06:37;;;;;;;0.50;0.50;;;;;;;8.02;100.00;101889.78;5075650;28;20441;-67
2021/10/07 00:09:06;;;;;;;0.40;0.30;;;;;;;8.07;100.00;101889.84;5075403;28;20868;-72
2021/10/07 00:11:33;;;;;;;0.40;0.30;;;;;;;8.06;100.00;101896.31;5075572;28;20479;-71
2021/10/07 00:13:59;;;;;;;0.40;0.20;;;;;;;8.10;100.00;101897.41;5075207;28;20939;-70
2021/10/07 00:16:26;;;;;;;0.40;0.30;;;;;;;8.06;100.00;101890.91;5075392;28;20485;-71
2021/10/07 00:18:53;;;;;;;0.40;0.30;;;;;;;8.02;99.82;101901.41;5075196;28;20477;-70
2021/10/07 00:21:20;;;;;;;0.40;0.30;;;;;;;8.01;99.39;101898.94;5075330;28;20451;-70
2021/10/07 00:24:02;;;;;;;0.40;0.30;;;;;;;7.76;98.53;101900.25;5075346;28;20441;-70
2021/10/07 00:26:29;;;;;;;0.40;0.30;;;;;;;7.77;99.06;101896.47;5075463;28;20434;-71
2021/10/07 00:29:02;;;;;;;0.40;0.30;;;;;;;7.75;99.55;101893.22;5077222;22;20498;-79
2021/10/07 00:31:34;;;;;;;0.40;0.30;;;;;;;7.66;99.11;101900.13;5054644;28;20828;-79
2021/10/07 00:34:14;;;;;;;0.40;0.30;;;;;;;7.61;99.18;101894.63;5056776;28;20533;-79
2021/10/07 00:36:57;;;;;;;0.40;0.30;;;;;;;7.56;100.00;101898.06;5056748;28;20518;-79
2021/10/07 00:39:22;;;;;;;0.40;0.30;;;;;;;7.64;99.85;101904.94;5056178;28;20493;-79
2021/10/07 00:41:50;;;;;;;0.70;0.70;;;;;;;7.72;99.89;101907.19;5056126;28;20955;-78
2021/10/07 00:44:16;;;;;;;0.40;0.30;;;;;;;7.67;100.00;101909.84;5056021;28;20578;-79
2021/10/07 00:46:48;;;;;;;0.40;0.30;;;;;;;7.44;100.00;101908.16;5055830;28;20971;-79
2021/10/07 00:49:15;;;;;;;0.40;0.30;;;;;;;7.45;100.00;101904.41;5056126;28;20452;-79
2021/10/07 00:51:43;;;;;;;0.40;0.30;;;;;;;7.61;100.00;101902.72;5055870;28;20433;-79
2021/10/07 00:54:26;;;;;;;0.40;0.30;;;;;;;7.66;100.00;101910.91;5055697;28;20451;-79
2021/10/07 00:56:53;;;;;;;0.40;0.30;;;;;;;7.77;100.00;101915.34;5055567;28;20508;-79
2021/10/07 00:59:20;;;;;;;0.40;0.30;;;;;;;7.81;100.00;101911.09;5055837;28;20450;-79
2021/10/07 01:01:47;;;;;;;0.40;0.20;;;;;;;7.84;100.00;101904.41;5055927;28;20442;-79
2021/10/07 01:04:14;;;;;;;0.40;0.27;;;;;;;7.84;100.00;101916.00;5056101;28;20450;-79
2021/10/07 01:06:43;;;;;;;0.40;0.30;;;;;;;7.78;100.00;101911.59;5056816;28;20573;-79
2021/10/07 01:09:10;;;;;;;0.40;0.20;;;;;;;7.70;100.00;101908.50;5056724;28;20812;-79
2021/10/07 01:11:36;;;;;;;0.40;0.30;;;;;;;7.67;100.00;101912.53;5056846;28;20947;-79
2021/10/07 01:14:03;;;;;;;0.40;0.30;;;;;;;7.66;100.00;101919.00;5056278;28;20457;-79
2021/10/07 01:16:30;;;;;;;0.40;0.30;;;;;;;7.70;100.00;101924.69;5054606;28;20453;-79
2021/10/07 01:18:56;;;;;;;0.40;0.30;;;;;;;7.54;99.19;101920.97;5054781;28;20446;-79
2021/10/07 01:21:25;;;;;;;0.40;0.30;;;;;;;7.49;98.62;101927.09;5056241;28;20442;-79
2021/10/07 01:23:51;;;;;;;0.40;0.30;;;;;;;7.41;98.63;101926.72;5056504;28;20443;-79
2021/10/07 01:26:20;;;;;;;0.40;0.30;;;;;;;7.37;98.92;101926.38;5056243;28;20442;-80
2021/10/07 01:28:51;;;;;;;0.40;0.20;;;;;;;7.36;98.81;101929.31;5055998;28;20461;-79
2021/10/07 01:31:18;;;;;;;0.50;0.40;;;;;;;7.38;98.55;101927.19;5056314;28;20422;-79
2021/10/07 01:33:45;;;;;;;0.40;0.30;;;;;;;7.33;98.07;101936.81;5056034;28;20831;-79
2021/10/07 01:36:11;;;;;;;4.77;4.40;;;;;;;7.37;98.58;101947.13;5055723;28;20451;-80
2021/10/07 01:38:39;;;;;;;0.40;0.27;;;;;;;7.30;99.29;101934.66;5056447;28;20490;-79
2021/10/07 01:41:06;;;;;;;0.40;0.30;;;;;;;7.26;99.29;101936.19;5056377;28;20932;-79
2021/10/07 01:43:33;;;;;;;0.40;0.30;;;;;;;7.30;100.00;101939.19;5055882;28;20451;-79
2021/10/07 01:45:59;;;;;;;0.40;0.20;;;;;;;7.23;100.00;101935.88;5056289;28;20947;-79
2021/10/07 01:48:26;;;;;;;0.40;0.30;;;;;;;7.31;99.98;101941.66;5056573;28;20454;-79
2021/10/07 01:50:52;;;;;;;0.40;0.30;;;;;;;7.32;99.92;101947.88;5056687;28;20442;-79
2021/10/07 01:53:19;;;;;;;0.40;0.30;;;;;;;7.25;100.00;101942.63;5056674;28;20438;-80
2021/10/07 01:55:47;;;;;;;0.40;0.20;;;;;;;7.17;100.00;101937.66;5056457;28;20457;-79
2021/10/07 01:58:13;;;;;;;0.40;0.27;;;;;;;7.27;100.00;101939.69;5056533;28;20493;-79
2021/10/07 02:00:42;;;;;;;0.40;0.27;;;;;;;7.25;100.00;101947.19;5056751;28;20440;-79
2021/10/07 02:03:09;;;;;;;0.40;0.30;;;;;;;7.31;100.00;101938.97;5056792;28;20438;-79
2021/10/07 02:05:35;;;;;;;0.40;0.30;;;;;;;7.36;100.00;101945.50;5056629;28;20446;-80
2021/10/07 02:08:02;;;;;;;0.40;0.30;;;;;;;7.36;100.00;101940.09;5057110;28;20825;-80
2021/10/07 02:10:29;;;;;;;0.40;0.30;;;;;;;7.34;99.79;101951.94;5057506;28;20434;-79
2021/10/07 02:12:56;;;;;;;0.40;0.30;;;;;;;7.26;99.55;101957.75;5056103;28;20465;-79
2021/10/07 02:15:23;;;;;;;0.40;0.23;;;;;;;7.02;98.09;101967.03;5055185;28;20442;-79
2021/10/07 02:17:50;;;;;;;0.40;0.30;;;;;;;6.93;98.31;101968.50;5055365;28;20489;-79
2021/10/07 02:20:16;;;;;;;0.40;0.30;;;;;;;6.91;98.66;101971.44;5055346;28;20450;-79
2021/10/07 02:22:43;;;;;;;0.40;0.30;;;;;;;6.92;98.88;101967.66;5055552;28;20449;-79
2021/10/07 02:25:11;;;;;;;0.40;0.30;;;;;;;6.90;99.72;101977.84;5055269;28;20807;-79
2021/10/07 02:27:38;;;;;;;0.40;0.30;;;;;;;6.85;98.91;101977.75;5055451;28;20463;-79
2021/10/07 02:30:09;;;;;;;0.40;0.30;;;;;;;6.87;98.85;101982.94;5055021;28;20828;-79
2021/10/07 02:32:35;;;;;;;0.40;0.30;;;;;;;6.85;98.20;101987.72;5055135;28;20407;-79
2021/10/07 02:35:02;;;;;;;0.40;0.30;;;;;;;6.85;98.24;101995.81;5055347;28;20450;-78
2021/10/07 02:37:29;;;;;;;0.40;0.20;;;;;;;6.84;98.48;101989.59;5055405;28;20857;-79
2021/10/07 02:39:56;;;;;;;0.40;0.30;;;;;;;6.82;98.72;101999.81;5054806;28;20435;-79
2021/10/07 02:42:22;;;;;;;0.40;0.30;;;;;;;6.90;99.01;102003.97;5054807;28;20461;-79
2021/10/07 02:44:49;;;;;;;0.40;0.30;;;;;;;6.78;99.89;102012.13;5054833;28;20445;-79
2021/10/07 02:47:17;;;;;;;0.40;0.30;;;;;;;6.82;99.48;102015.97;5054453;28;20493;-79
2021/10/07 02:49:43;;;;;;;0.40;0.30;;;;;;;6.80;99.83;102018.88;5055062;28;20939;-79
2021/10/07 02:52:10;;;;;;;0.40;0.30;;;;;;;6.83;99.77;102012.22;5054956;28;20438;-79
2021/10/07 02:54:36;;;;;;;0.40;0.20;;;;;;;6.85;99.95;102014.66;5055439;28;20948;-79
2021/10/07 02:57:03;;;;;;;0.40;0.30;;;;;;;6.93;100.00;102025.88;5058957;28;21013;-79
2021/10/07 02:59:30;;;;;;;9.07;8.33;;;;;;;6.96;99.92;102017.31;5059169;28;20446;-79
2021/10/07 03:01:56;;;;;;;0.40;0.33;;;;;;;6.88;99.05;102025.78;5059148;28;20457;-79
2021/10/07 03:04:24;;;;;;;0.40;0.20;;;;;;;6.89;98.99;102022.00;5058778;28;20442;-79
2021/10/07 03:06:51;;;;;;;0.50;0.50;;;;;;;6.83;99.35;102022.97;5059160;28;20481;-79
2021/10/07 03:09:17;;;;;;;0.40;0.30;;;;;;;6.86;99.59;102025.19;5058955;28;20485;-79
2021/10/07 03:11:44;;;;;;;0.40;0.30;;;;;;;6.88;99.23;102030.34;5059455;28;20818;-80
2021/10/07 03:14:10;;;;;;;0.40;0.20;;;;;;;6.67;98.23;102024.56;5060778;28;20445;-80
2021/10/07 03:16:37;;;;;;;0.40;0.30;;;;;;;6.73;98.51;102029.00;5060123;28;20476;-80
2021/10/07 03:19:03;;;;;;;0.40;0.30;;;;;;;6.64;97.65;102033.13;5060042;28;20446;-78
2021/10/07 03:21:31;;;;;;;0.40;0.30;;;;;;;6.53;97.74;102042.03;5058884;28;20446;-79
2021/10/07 03:23:58;;;;;;;0.40;0.30;;;;;;;6.52;98.06;102038.53;5058787;28;20456;-79
2021/10/07 03:26:25;;;;;;;1.17;1.07;;;;;;;6.62;97.89;102043.31;5059136;28;20450;-79
2021/10/07 03:28:51;;;;;;;0.40;0.20;;;;;;;6.53;97.70;102047.41;5058726;28;20491;-79
2021/10/07 03:31:18;;;;;;;0.40;0.20;;;;;;;6.47;97.26;102051.88;5059139;28;20446;-79
2021/10/07 03:33:45;;;;;;;0.40;0.30;;;;;;;6.42;97.92;102049.09;5059264;28;20449;-79
2021/10/07 03:36:11;;;;;;;0.40;0.30;;;;;;;6.51;98.37;102053.06;5059179;28;20442;-79
2021/10/07 03:38:39;;;;;;;0.40;0.30;;;;;;;6.54;99.11;102049.06;5059414;28;20548;-79
2021/10/07 03:41:06;;;;;;;0.40;0.30;;;;;;;6.44;99.98;102048.84;5059459;28;20438;-79
2021/10/07 03:43:32;;;;;;;0.40;0.30;;;;;;;6.53;99.81;102060.88;5059449;28;20932;-79
2021/10/07 03:45:59;;;;;;;0.40;0.30;;;;;;;6.47;100.00;102059.97;5062384;28;20944;-79
2021/10/07 03:48:25;;;;;;;0.40;0.30;;;;;;;6.45;100.00;102059.38;5065561;28;20850;-79
2021/10/07 03:50:52;;;;;;;0.40;0.30;;;;;;;6.37;100.00;102059.72;5065339;28;20442;-79
2021/10/07 03:53:18;;;;;;;0.40;0.23;;;;;;;6.36;100.00;102076.13;5064644;28;20457;-79
2021/10/07 03:55:46;;;;;;;0.40;0.30;;;;;;;6.48;100.00;102068.84;5063545;28;20827;-79
2021/10/07 03:58:13;;;;;;;0.57;0.57;;;;;;;6.49;99.64;102082.06;5062181;28;20979;-79
2021/10/07 04:00:39;;;;;;;0.40;0.20;;;;;;;6.48;100.00;102079.63;5059790;28;20434;-79
2021/10/07 04:03:06;;;;;;;0.40;0.30;;;;;;;6.52;99.33;102094.25;5059716;28;20457;-79
2021/10/07 04:05:32;;;;;;;0.40;0.20;;;;;;;6.47;99.13;102094.94;5059004;28;20446;-79
2021/10/07 04:07:59;;;;;;;0.40;0.30;;;;;;;6.53;98.37;102088.63;5058764;28;20486;-79
2021/10/07 04:10:25;;;;;;;0.60;0.60;;;;;;;6.48;97.53;102079.63;5058838;28;20452;-79
2021/10/07 04:12:53;;;;;;;0.40;0.30;;;;;;;6.42;98.26;102094.00;5058898;28;20457;-79
2021/10/07 04:15:20;;;;;;;0.40;0.30;;;;;;;6.34;98.19;102095.19;5059870;28;20439;-79
2021/10/07 04:17:46;;;;;;;0.40;0.27;;;;;;;6.25;97.33;102094.75;5059834;28;20462;-79
2021/10/07 04:20:13;;;;;;;0.63;0.57;;;;;;;6.21;96.89;102101.63;5058668;28;20434;-79
2021/10/07 04:22:39;;;;;;;0.40;0.30;;;;;;;6.05;98.17;102103.13;5058392;28;20445;-79
2021/10/07 04:25:07;;;;;;;0.60;0.30;;;;;;;6.02;98.09;102100.09;5058125;28;20464;-79
2021/10/07 04:27:35;;;;;;;0.40;0.30;;;;;;;6.01;98.04;102098.47;5057446;28;20828;-79
2021/10/07 04:30:05;;;;;;;0.40;0.30;;;;;;;6.07;97.52;102102.94;5057603;28;20461;-79
2021/10/07 04:32:31;;;;;;;0.40;0.30;;;;;;;6.13;97.62;102103.84;5057166;28;20438;-79
2021/10/07 04:34:58;;;;;;;1.17;1.17;;;;;;;6.15;98.48;102110.63;5056976;28;20438;-78
2021/10/07 04:37:24;;;;;;;0.40;0.30;;;;;;;6.13;98.70;102104.66;5056362;28;20462;-78
2021/10/07 04:39:51;;;;;;;0.40;0.27;;;;;;;6.18;98.87;102110.16;5057396;28;20812;-78
2021/10/07 04:42:17;;;;;;;0.40;0.30;;;;;;;6.25;99.01;102112.75;5075748;28;20442;-78
2021/10/07 04:44:44;;;;;;;0.40;0.30;;;;;;;6.25;98.79;102121.66;5075320;28;20520;-78
2021/10/07 04:47:12;;;;;;;0.40;0.30;;;;;;;6.28;99.38;102113.06;5075298;28;20454;-78
2021/10/07 04:49:38;;;;;;;0.40;0.30;;;;;;;6.18;99.41;102122.81;5075245;28;20485;-78
2021/10/07 04:52:05;;;;;;;0.40;0.30;;;;;;;6.18;99.95;102120.94;5075001;28;20438;-78
2021/10/07 04:54:31;;;;;;;0.50;0.47;;;;;;;6.27;99.17;102126.78;5076103;28;20441;-78
2021/10/07 04:56:58;;;;;;;0.40;0.20;;;;;;;6.10;99.33;102131.22;5076229;28;20458;-78
2021/10/07 04:59:24;;;;;;;0.40;0.20;;;;;;;6.03;100.00;102136.72;5077972;28;20810;-78
2021/10/07 05:01:51;;;;;;;0.40;0.30;;;;;;;6.12;100.00;102132.63;5076897;28;20438;-77
2021/10/07 05:04:19;;;;;;;0.40;0.30;;;;;;;6.19;99.56;102135.19;5076486;28;20475;-79
2021/10/07 05:06:45;;;;;;;0.40;0.30;;;;;;;6.23;99.17;102137.19;5077094;28;20465;-79
2021/10/07 05:09:12;;;;;;;0.40;0.30;;;;;;;6.25;99.24;102140.47;5077010;28;20495;-79
2021/10/07 05:11:41;;;;;;;0.50;0.40;;;;;;;6.20;99.09;102151.13;5076976;28;20450;-79
2021/10/07 05:14:07;;;;;;;0.40;0.30;;;;;;;6.03;98.12;102147.47;5077293;28;20807;-79
2021/10/07 05:16:34;;;;;;;0.40;0.30;;;;;;;6.12;97.49;102161.41;5077368;28;20466;-79
2021/10/07 05:19:00;;;;;;;0.40;0.33;;;;;;;6.03;96.32;102160.94;5076032;28;20448;-80
2021/10/07 05:21:28;;;;;;;0.40;0.23;;;;;;;5.96;96.70;102163.69;5076570;28;20448;-79
2021/10/07 05:23:54;;;;;;;0.40;0.30;;;;;;;5.96;97.12;102168.25;5067448;22;20498;-81
2021/10/07 05:26:21;;;;;;;0.40;0.20;;;;;;;5.98;97.81;102167.00;5057554;28;20449;-82
2021/10/07 05:28:48;;;;;;;0.40;0.30;;;;;;;5.85;96.59;102172.56;5057320;28;20492;-81
2021/10/07 05:31:14;;;;;;;0.40;0.30;;;;;;;5.89;96.90;102170.19;5056900;28;20430;-81
2021/10/07 05:33:41;;;;;;;0.40;0.30;;;;;;;5.83;96.86;102170.06;5057161;28;20470;-81
2021/10/07 05:36:07;;;;;;;0.40;0.30;;;;;;;5.88;97.73;102172.06;5056677;28;20434;-81
2021/10/07 05:38:35;;;;;;;0.40;0.30;;;;;;;5.92;98.82;102175.97;5057440;28;20439;-82
2021/10/07 05:41:01;;;;;;;0.40;0.20;;;;;;;5.90;99.48;102177.25;5057705;28;20454;-80
2021/10/07 05:43:28;;;;;;;0.40;0.30;;;;;;;5.93;99.67;102187.53;5057296;28;20465;-81
2021/10/07 05:45:55;;;;;;;0.40;0.30;;;;;;;5.97;98.61;102186.03;5057393;28;20434;-81
2021/10/07 05:48:21;;;;;;;0.40;0.20;;;;;;;5.94;98.63;102184.66;5057624;28;20852;-81
2021/10/07 05:50:48;;;;;;;0.40;0.30;;;;;;;6.06;98.93;102190.88;5056550;28;20777;-81
2021/10/07 05:53:14;;;;;;;0.40;0.30;;;;;;;5.97;99.43;102188.72;5056634;28;20469;-80
2021/10/07 05:55:42;;;;;;;2.60;2.20;;;;;;;5.89;100.00;102192.56;5057163;28;20438;-81
2021/10/07 05:58:08;;;;;;;0.40;0.23;;;;;;;5.95;100.00;102202.41;5057281;28;20457;-81
2021/10/07 06:00:35;;;;;;;0.40;0.30;;;;;;;6.11;100.00;102202.78;5057018;28;20450;-81
2021/10/07 06:03:02;;;;;;;0.40;0.30;;;;;;;6.11;100.00;102205.47;5057027;28;20455;-81
2021/10/07 06:05:28;;;;;;;0.40;0.30;;;;;;;6.10;100.00;102207.34;5056951;28;20442;-81
2021/10/07 06:07:55;;;;;;;0.40;0.30;;;;;;;5.97;100.00;102210.25;5057207;28;20445;-80
2021/10/07 06:10:21;;;;;;;0.40;0.30;;;;;;;6.05;100.00;102216.09;5056789;28;20450;-80
2021/10/07 06:12:49;;;;;;;0.40;0.30;;;;;;;6.00;99.67;102217.84;5057233;28;20462;-80
2021/10/07 06:15:15;;;;;;;0.40;0.30;;;;;;;5.91;100.00;102220.03;5057061;28;20442;-80
2021/10/07 06:17:42;;;;;;;0.40;0.30;;;;;;;6.00;100.00;102224.06;5057125;28;20943;-80
2021/10/07 06:20:19;;;;;;;0.40;0.40;;;;;;;6.02;100.00;102229.19;5057273;28;20526;-80
2021/10/07 06:22:47;;;;;;;0.40;0.30;;;;;;;6.17;100.00;102232.28;5056213;28;21032;-80
2021/10/07 06:25:13;;;;;;;0.40;0.30;;;;;;;6.29;100.00;102235.84;5057129;28;20445;-80
2021/10/07 06:27:40;;;;;;;0.40;0.30;;;;;;;6.29;100.00;102237.72;5057147;28;20465;-80
2021/10/07 06:30:09;;;;;;;0.40;0.23;;;;;;;6.17;100.00;102232.28;5056861;28;20490;-80
2021/10/07 06:32:35;;;;;;;1.67;1.57;;;;;;;6.12;100.00;102237.53;5057156;28;20469;-80
2021/10/07 06:35:02;;;;;;;0.40;0.30;;;;;;;6.26;100.00;102246.22;5056875;28;20460;-80
2021/10/07 06:37:28;;;;;;;0.40;0.30;;;;;;;6.27;100.00;102251.38;5056633;28;20438;-80
2021/10/07 06:39:55;;;;;;;0.40;0.20;;;;;;;6.31;100.00;102249.03;5057885;28;20509;-80
2021/10/07 06:42:21;;;;;;;0.40;0.30;;;;;;;6.47;100.00;102258.31;5057881;28;20462;-80
2021/10/07 06:44:48;;;;;;;0.40;0.20;;;;;;;6.55;100.00;102256.13;5056662;28;20445;-80
2021/10/07 06:47:16;;;;;;;0.40;0.20;;;;;;;6.65;100.00;102263.59;5056576;28;20450;-80
2021/10/07 06:49:43;;;;;;;0.40;0.40;;;;;;;6.76;100.00;102265.47;5056147;28;20490;-80
2021/10/07 06:52:09;;;;;;;0.40;0.30;;;;;;;6.93;100.00;102267.47;5056409;28;20462;-80
2021/10/07 06:54:36;;;;;;;0.40;0.30;;;;;;;7.03;100.00;102267.69;5055974;28;20923;-80
2021/10/07 06:57:02;;;;;;;0.50;0.40;;;;;;;7.12;100.00;102262.75;5055985;28;20874;-80
2021/10/07 06:59:29;;;;;;;0.40;0.27;;;;;;;7.21;100.00;102264.03;5055846;28;20801;-80
2021/10/07 07:01:55;;;;;;;2.17;1.97;;;;;;;7.30;100.00;102265.31;5055275;28;20466;-80
2021/10/07 07:04:23;;;;;;;0.40;0.30;;;;;;;7.43;100.00;102264.22;5056155;28;20434;-80
2021/10/07 07:06:50;;;;;;;0.40;0.30;;;;;;;7.53;100.00;102265.28;5055418;28;20896;-80
2021/10/07 07:09:17;;;;;;;0.40;0.30;;;;;;;7.70;100.00;102270.72;5055399;28;20490;-81
2021/10/07 07:11:44;;;;;;;2.10;2.00;;;;;;;7.87;100.00;102273.47;5057501;28;20434;-81
2021/10/07 07:14:10;;;;;;;0.40;0.30;;;;;;;7.96;100.00;102282.81;5058364;28;20446;-82
2021/10/07 07:16:37;;;;;;;0.40;0.30;;;;;;;8.01;100.00;102276.69;5058307;28;20450;-82
2021/10/07 07:19:04;;;;;;;0.40;0.30;;;;;;;8.20;100.00;102283.53;5058259;28;20438;-81
2021/10/07 07:21:33;;;;;;;0.40;0.30;;;;;;;8.38;100.00;102284.41;5057905;28;20447;-80
2021/10/07 07:24:01;;;;;;;0.40;0.30;;;;;;;8.56;100.00;102289.56;5056277;28;20481;-81
2021/10/07 07:26:29;;;;;;;0.40;0.30;;;;;;;8.72;100.00;102294.16;5056753;28;20449;-81
2021/10/07 07:28:55;;;;;;;0.40;0.30;;;;;;;8.93;100.00;102294.44;5056403;28;20850;-81
2021/10/07 07:31:23;;;;;;;1.53;0.93;;;;;;;9.13;100.00;102292.06;5057512;28;20446;-80
2021/10/07 07:33:50;;;;;;;0.40;0.30;;;;;;;9.37;100.00;102298.03;5056488;28;20458;-80
2021/10/07 07:36:17;;;;;;;0.40;0.30;;;;;;;9.52;100.00;102303.66;5057036;28;20453;-81
2021/10/07 07:38:45;;;;;;;7.10;3.30;;;;;;;9.67;100.00;102294.91;5057847;28;20438;-81
2021/10/07 07:41:12;;;;;;;0.40;0.30;;;;;;;9.76;100.00;102298.81;5060475;28;20469;-81
2021/10/07 07:43:39;;;;;;;0.40;0.30;;;;;;;9.84;100.00;102297.53;5061990;28;20473;-82
2021/10/07 07:46:06;;;;;;;0.40;0.30;;;;;;;9.94;100.00;102310.38;5058518;28;20445;-81
2021/10/07 07:48:33;;;;;;;0.40;0.30;;;;;;;9.97;100.00;102307.16;5057691;28;20441;-81
2021/10/07 07:51:00;;;;;;;1.13;0.77;;;;;;;10.04;100.00;102305.88;5061581;28;20426;-82
2021/10/07 07:53:26;;;;;;;0.40;0.30;;;;;;;10.15;100.00;102309.50;5059139;28;20473;-83
2021/10/07 07:55:55;;;;;;;0.40;0.30;;;;;;;10.23;100.00;102314.47;5059857;28;20820;-82
2021/10/07 07:58:22;;;;;;;0.40;0.30;;;;;;;10.34;100.00;102305.38;5059537;28;20446;-83
2021/10/07 08:00:48;;;;;;;0.40;0.30;;;;;;;10.49;100.00;102312.84;5060684;28;20434;-82
2021/10/07 08:03:15;;;;;;;0.40;0.30;;;;;;;10.59;100.00;102309.41;5059224;28;20465;-81
2021/10/07 08:05:42;;;;;;;0.40;0.30;;;;;;;10.65;100.00;102308.38;5059205;28;20434;-82
2021/10/07 08:08:09;;;;;;;0.40;0.30;;;;;;;10.70;100.00;102319.25;5059169;28;20442;-82
2021/10/07 08:10:35;;;;;;;0.40;0.30;;;;;;;10.75;100.00;102319.28;5057954;28;20493;-81
2021/10/07 08:13:04;;;;;;;0.40;0.20;;;;;;;10.81;100.00;102318.25;5058161;28;20814;-82
2021/10/07 08:15:30;;;;;;;0.40;0.30;;;;;;;10.88;100.00;102322.63;5058004;28;20935;-81
2021/10/07 08:17:57;;;;;;;0.40;0.30;;;;;;;10.94;100.00;102333.25;5058297;28;20446;-80
2021/10/07 08:20:23;;;;;;;0.40;0.30;;;;;;;10.96;100.00;102339.22;5058210;28;20812;-81
2021/10/07 08:22:50;;;;;;;0.40;0.30;;;;;;;11.12;100.00;102342.88;5057875;28;20516;-80
2021/10/07 08:25:19;;;;;;;0.87;0.87;;;;;;;11.19;100.00;102335.31;5059435;28;20545;-81
2021/10/07 08:27:47;;;;;;;0.40;0.30;;;;;;;11.27;100.00;102334.81;5057502;28;20796;-80
2021/10/07 08:30:16;;;;;;;0.40;0.20;;;;;;;11.30;100.00;102341.63;5056842;28;20493;-79
2021/10/07 08:32:43;;;;;;;0.40;0.20;;;;;;;11.36;100.00;102344.09;5057438;28;20462;-80
2021/10/07 08:35:10;;;;;;;0.40;0.30;;;;;;;11.61;100.00;102345.31;5057101;28;20438;-80
2021/10/07 08:37:37;;;;;;;0.40;0.30;;;;;;;11.77;100.00;102332.63;5056685;28;20430;-80
2021/10/07 08:40:06;;;;;;;0.40;0.30;;;;;;;11.86;100.00;102345.47;5057356;28;20947;-81
2021/10/07 08:42:33;;;;;;;0.40;0.27;;;;;;;11.94;100.00;102348.72;5056851;28;20478;-80
2021/10/07 08:45:01;;;;;;;0.40;0.30;;;;;;;11.96;100.00;102350.09;5056703;28;20446;-80
2021/10/07 08:47:30;;;;;;;0.40;0.30;;;;;;;12.08;100.00;102347.94;5057387;28;20430;-80
2021/10/07 08:49:56;;;;;;;0.40;0.30;;;;;;;12.25;100.00;102355.88;5056756;28;20482;-80
2021/10/07 08:52:23;;;;;;;0.40;0.30;;;;;;;12.30;100.00;102363.22;5055257;28;20492;-80
2021/10/07 08:54:50;;;;;;;0.40;0.30;;;;;;;12.34;100.00;102358.88;5057185;28;20819;-80
2021/10/07 08:57:16;;;;;;;0.40;0.20;;;;;;;12.40;100.00;102363.25;5057811;28;20434;-82
2021/10/07 08:59:43;;;;;;;0.40;0.20;;;;;;;12.53;100.00;102370.91;5057725;28;20441;-82
2021/10/07 09:02:24;;;;;;;0.40;0.30;;;;;;;12.70;100.00;102378.75;5056523;28;20477;-82
2021/10/07 09:04:53;;;;;;;0.40;0.20;;;;;;;12.82;99.79;102371.16;5058646;28;20777;-82
2021/10/07 09:07:20;;;;;;;0.40;0.27;;;;;;;12.88;99.02;102378.25;5058606;28;20500;-79
2021/10/07 09:09:46;;;;;;;0.40;0.30;;;;;;;12.94;98.82;102372.81;5061790;28;20482;-82
2021/10/07 09:12:15;;;;;;;0.40;0.30;;;;;;;12.96;99.02;102373.34;5063584;28;20895;-83
2021/10/07 09:14:43;;;;;;;0.40;0.20;;;;;;;12.97;98.83;102374.97;5059185;28;20442;-81
2021/10/07 09:17:12;;;;;;;0.40;0.30;;;;;;;13.04;98.59;102380.94;5057521;28;20453;-82
2021/10/07 09:19:40;;;;;;;0.40;0.20;;;;;;;13.08;98.32;102380.13;5060021;28;20787;-81
2021/10/07 09:22:17;;;;;;;0.50;0.47;;;;;;;13.14;98.10;102375.50;5060841;28;20513;-81
2021/10/07 09:24:45;;;;;;;0.53;0.50;;;;;;;13.08;95.30;102379.31;5058848;28;20430;-82
2021/10/07 09:27:14;;;;;;;0.40;0.30;;;;;;;13.24;94.96;102378.25;5057621;28;20446;-82
2021/10/07 09:29:44;;;;;;;0.40;0.30;;;;;;;13.33;94.57;102373.88;5057872;28;20478;-82
2021/10/07 09:32:16;;;;;;;0.40;0.30;;;;;;;13.45;93.51;102375.47;5057387;28;20462;-81
2021/10/07 09:34:46;;;;;;;0.40;0.30;;;;;;;13.59;92.64;102376.50;5058647;28;20497;-82
2021/10/07 09:37:30;;;;;;;0.40;0.30;;;;;;;13.61;90.39;102382.50;5058561;28;20442;-82
2021/10/07 09:39:59;;;;;;;0.40;0.20;;;;;;;13.68;91.17;102372.16;5057217;28;20450;-82
2021/10/07 09:42:27;;;;;;;0.40;0.30;;;;;;;13.76;89.85;102377.00;5057562;28;20447;-81
2021/10/07 09:45:03;;;;;;;0.40;0.30;;;;;;;13.83;90.17;102374.81;5057359;28;20439;-82
2021/10/07 09:47:31;;;;;;;0.40;0.30;;;;;;;13.94;89.88;102375.56;5058442;28;20426;-81
2021/10/07 09:50:13;;;;;;;0.40;0.30;;;;;;;14.10;89.46;102379.03;5057969;28;20490;-81
2021/10/07 09:52:42;;;;;;;0.40;0.30;;;;;;;14.29;88.41;102377.28;5056995;28;20979;-82
2021/10/07 09:55:11;;;;;;;0.40;0.20;;;;;;;14.51;87.28;102381.53;5056973;28;20602;-82
2021/10/07 09:57:57;;;;;;;0.40;0.30;;;;;;;14.62;85.78;102375.75;5056832;28;20810;-82
2021/10/07 10:00:26;;;;;;;0.40;0.30;;;;;;;14.78;85.27;102383.78;5057419;28;20942;-82
2021/10/07 10:02:55;;;;;;;0.40;0.20;;;;;;;14.88;84.43;102381.81;5056272;28;20466;-83
2021/10/07 10:05:21;;;;;;;0.40;0.27;;;;;;;14.93;85.03;102374.69;5057624;28;20495;-83
2021/10/07 10:07:49;;;;;;;0.40;0.30;;;;;;;14.86;83.72;102373.09;5058350;28;20446;-81
2021/10/07 10:10:16;;;;;;;0.40;0.20;;;;;;;14.94;84.20;102373.59;5057132;28;20485;-81
2021/10/07 10:12:42;;;;;;;0.40;0.30;;;;;;;14.86;83.30;102377.72;5058453;28;20454;-82
2021/10/07 10:15:11;;;;;;;0.40;0.20;;;;;;;15.04;84.83;102382.47;5059652;28;20458;-81
2021/10/07 10:17:38;;;;;;;0.40;0.30;;;;;;;15.07;84.21;102381.91;5059534;28;20952;-81
2021/10/07 10:20:09;;;;;;;0.40;0.30;;;;;;;15.19;83.77;102388.94;5060224;28;20451;-81
2021/10/07 10:22:36;;;;;;;0.40;0.30;;;;;;;15.27;83.49;102391.84;5057997;28;20474;-82
2021/10/07 10:25:04;;;;;;;0.40;0.30;;;;;;;15.33;83.24;102387.94;5056853;28;20446;-81
2021/10/07 10:27:55;;;;;;;0.40;0.30;;;;;;;15.41;83.23;102393.91;5059222;28;20461;-81
2021/10/07 10:30:29;;;;;;;0.40;0.30;;;;;;;15.47;81.98;102390.00;5057848;28;20481;-81
2021/10/07 10:32:57;;;;;;;0.40;0.30;;;;;;;15.56;82.03;102390.97;5059117;28;20466;-81
2021/10/07 10:35:39;;;;;;;0.40;0.30;;;;;;;15.63;82.24;102392.28;5057765;28;20442;-81
2021/10/07 10:38:08;;;;;;;0.40;0.30;;;;;;;15.86;81.51;102401.59;5059122;28;20962;-81
2021/10/07 10:40:37;;;;;;;0.40;0.20;;;;;;;16.08;79.89;102395.56;5056774;28;20453;-81
2021/10/07 10:43:34;;;;;;;0.40;0.20;;;;;;;16.30;76.83;102397.75;5056336;28;20473;-82
2021/10/07 10:46:18;;;;;;;0.40;0.20;;;;;;;16.49;75.18;102394.19;5057600;28;20466;-81
2021/10/07 10:49:00;;;;;;;0.40;0.30;;;;;;;16.66;75.16;102405.41;5056365;28;20427;-80
2021/10/07 10:51:52;;;;;;;0.40;0.30;;;;;;;16.79;72.53;102412.91;5056470;28;20486;-81
2021/10/07 10:54:30;;;;;;;0.40;0.20;;;;;;;16.92;73.18;102402.31;5056638;28;20446;-80
2021/10/07 10:57:00;;;;;;;0.40;0.30;;;;;;;17.01;72.10;102401.31;5055542;28;20421;-80
2021/10/07 10:59:30;;;;;;;0.40;0.30;;;;;;;17.17;71.72;102401.03;5054655;28;20453;-80
2021/10/07 11:02:30;;;;;;;0.40;0.30;;;;;;;17.19;72.39;102412.53;5054923;28;20442;-80
2021/10/07 11:04:58;;;;;;;0.40;0.30;;;;;;;17.53;71.03;102406.66;4973464;28;20958;-80
2021/10/07 11:07:28;;;;;;;0.40;0.30;;;;;;;18.38;68.90;102410.69;4973526;28;20462;-80
2021/10/07 11:09:57;;;;;;;0.40;0.30;;;;;;;19.45;66.42;102405.31;5011442;28;20991;-80
2021/10/07 11:12:26;;;;;;;0.40;0.30;;;;;;;20.13;58.00;102417.66;5054351;28;20462;-80
2021/10/07 11:15:00;;;;;;;0.40;0.20;;;;;;;20.53;55.41;102420.31;5054715;28;20477;-81
2021/10/07 11:17:31;;;;;;;0.40;0.30;;;;;;;21.41;56.17;102422.63;5058035;28;20433;-78
2021/10/07 11:19:58;;;;;;;0.40;0.30;;;;;;;22.41;53.28;102429.41;5058700;28;20423;-79
2021/10/07 11:22:25;;;;;;;0.40;0.30;;;;;;;22.69;50.40;102423.34;5086693;22;20449;-70
2021/10/07 11:24:53;;;;;;;0.40;0.30;;;;;;;21.83;50.10;102424.75;5076494;28;20441;-71
2021/10/07 11:27:36;;;;;;;0.40;0.30;;;;;;;20.83;53.31;102421.28;5076564;28;20823;-71
2021/10/07 11:30:06;;;;;;;0.40;0.30;;;;;;;20.25;55.01;102416.25;5076391;28;20481;-71
2021/10/07 11:32:33;;;;;;;0.40;0.30;;;;;;;21.12;54.99;102420.59;5076322;28;20445;-70